ESGT/THN METAR and TAF weather

Enter ICAO airport designator
Station Type Date Time Source
ESGT METAR 2018/10/22 15:50 UTC NOAA

ESGT 221550Z 22012KT 9999 NSC 09/03 Q1017


Station Type Date Time Source
ESGT Decoded METAR 2018/10/22 15:50 UTC NOAA

Trollhattan Private , Sweden (ESGT) 58-19N 012-21E
Oct 22, 2018 - 11:50 AM EDT / 2018.10.22 1550 UTC
Wind: from the SW (220 degrees) at 14 MPH (12 KT):0
Visibility: greater than 7 mile(s):0
Temperature: 48 F (9 C)
Dew Point: 37 F (3 C)
Relative Humidity: 66%
Pressure (altimeter): 30.03 in. Hg (1017 hPa)
ob: ESGT 221550Z 22012KT 9999 NSC 09/03 Q1017
cycle: 16

Station Type Date Time Source
ESGT TAF 2016/08/12 05:58 UTC NOAA

TAF ESGT 120430Z 1205/1224 18007KT 9999 FEW030


Example: see airport list